Time;durP1;ratioP1;P1;durP2;ratioP2;P2;SDS_P1;SDS_P2;PMS_P1;PMS_P2;Temp;Humidity;BMP_temperature;BMP_pressure;BME280_temperature;BME280_humidity;BME280_pressure;Samples;Min_cycle;Max_cycle;Signal;HPM_P1;HPM_P2
2023/07/01 00:01:06;;;;;;;;;9.33;7.67;;;;;21.67;51.89;100683.97;5100599;27;45331;-70
2023/07/01 00:03:32;;;;;;;;;17.67;16.00;;;;;21.66;52.09;100685.84;5100638;27;45317;-70
2023/07/01 00:05:58;;;;;;;;;11.67;10.00;;;;;21.70;52.47;100691.63;5100880;27;45344;-69
2023/07/01 00:08:24;;;;;;;;;4.00;4.00;;;;;21.52;54.26;100673.44;5100099;27;46871;-69
2023/07/01 00:10:49;;;;;;;;;4.00;3.00;;;;;21.50;55.60;100684.47;5100432;27;45386;-69
2023/07/01 00:13:14;;;;;;;;;2.33;2.00;;;;;20.93;56.42;100612.34;5100466;27;45823;-70
2023/07/01 00:15:40;;;;;;;;;1.67;1.67;;;;;21.40;56.23;100675.97;5100593;27;45422;-70
2023/07/01 00:18:05;;;;;;;;;1.33;1.00;;;;;21.38;56.32;100672.66;5081713;27;52126;-68
2023/07/01 00:20:32;;;;;;;;;4.67;1.33;;;;;21.44;56.05;100671.81;5100196;27;45262;-67
2023/07/01 00:22:57;;;;;;;;;1.33;1.33;;;;;21.53;56.00;100686.75;5079322;27;45379;-76
2023/07/01 00:25:23;;;;;;;;;2.00;2.00;;;;;21.47;55.91;100665.16;5080259;28;45440;-68
2023/07/01 00:27:49;;;;;;;;;1.67;1.67;;;;;21.57;56.35;100665.47;5061537;28;47053;-69
2023/07/01 00:30:14;;;;;;;;;1.67;1.67;;;;;21.58;55.56;100660.91;5079571;28;45366;-68
2023/07/01 00:32:39;;;;;;;;;1.33;1.33;;;;;21.50;56.11;100645.78;5079839;28;45233;-70
2023/07/01 00:35:05;;;;;;;;;2.00;2.00;;;;;21.24;55.51;100593.53;5061696;28;45533;-70
2023/07/01 00:37:31;;;;;;;;;1.00;1.00;;;;;21.68;55.41;100663.97;5079519;28;45465;-70
2023/07/01 00:39:56;;;;;;;;;0.67;0.67;;;;;21.60;55.62;100658.81;5060661;27;45860;-68
2023/07/01 00:42:21;;;;;;;;;2.00;2.00;;;;;21.05;55.26;100575.50;5079015;28;45311;-69
2023/07/01 00:44:47;;;;;;;;;1.33;1.00;;;;;21.40;55.49;100648.09;5079714;28;45369;-69
2023/07/01 00:47:12;;;;;;;;;1.33;1.33;;;;;21.33;55.54;100639.22;5079233;27;46128;-69
2023/07/01 00:49:39;;;;;;;;;4.33;2.00;;;;;21.30;56.35;100636.94;5079297;28;45254;-69
2023/07/01 00:52:06;;;;;;;;;1.00;1.00;;;;;21.19;56.61;100641.13;5079550;28;45308;-70
2023/07/01 00:54:34;;;;;;;;;2.67;1.00;;;;;21.18;57.32;100634.06;5096869;27;45449;-69
2023/07/01 00:57:03;;;;;;;;;1.33;1.33;;;;;21.22;58.61;100637.97;5099523;27;46784;-69
2023/07/01 00:59:29;;;;;;;;;3.00;3.00;;;;;21.08;58.47;100625.59;5099422;27;45315;-70
2023/07/01 01:01:58;;;;;;;;;2.00;2.00;;;;;20.87;58.63;100603.25;5099930;27;45224;-70
2023/07/01 01:04:31;;;;;;;;;1.67;1.67;;;;;20.96;58.81;100615.44;5100004;27;45333;-68
2023/07/01 01:07:07;;;;;;;;;1.33;1.33;;;;;20.73;59.10;100569.22;5099627;27;46021;-70
2023/07/01 01:09:45;;;;;;;;;3.33;3.33;;;;;20.96;59.55;100607.34;5080776;27;46185;-67
2023/07/01 01:12:12;;;;;;;;;3.00;3.00;;;;;21.04;59.89;100629.78;5099654;27;45421;-68
2023/07/01 01:14:39;;;;;;;;;1.67;1.67;;;;;20.99;60.10;100621.47;5098298;27;45447;-69
2023/07/01 01:17:16;;;;;;;;;3.00;3.00;;;;;20.98;60.24;100617.13;5080386;27;47699;-79
2023/07/01 01:19:52;;;;;;;;;2.00;2.00;;;;;20.87;60.42;100597.84;5098555;27;45316;-71
2023/07/01 01:22:40;;;;;;;;;3.00;3.00;;;;;20.96;60.76;100614.63;5080907;27;45303;-69
2023/07/01 01:25:08;;;;;;;;;4.33;3.00;;;;;21.00;61.04;100621.25;5099397;27;45337;-69
2023/07/01 01:27:39;;;;;;;;;4.00;4.00;;;;;21.01;61.77;100616.69;5098995;27;46774;-70
2023/07/01 01:30:06;;;;;;;;;3.00;3.00;;;;;20.89;62.11;100598.44;5097941;27;45406;-67
2023/07/01 01:32:33;;;;;;;;;3.33;3.33;;;;;20.68;62.85;100571.75;5099400;27;45699;-68
2023/07/01 01:34:59;;;;;;;;;2.67;2.00;;;;;20.65;63.57;100580.28;5099463;27;45643;-69
2023/07/01 01:37:33;;;;;;;;;2.00;2.00;;;;;20.73;63.86;100598.09;5099202;27;45566;-69
2023/07/01 01:40:09;;;;;;;;;4.67;4.00;;;;;20.59;63.92;100575.69;5080923;27;45561;-69
2023/07/01 01:42:37;;;;;;;;;7.67;5.33;;;;;20.67;64.58;100597.09;5099258;27;45234;-69
2023/07/01 01:45:05;;;;;;;;;2.67;2.67;;;;;20.64;64.54;100584.84;5099468;27;45293;-69
2023/07/01 01:47:31;;;;;;;;;4.00;3.00;;;;;20.59;64.78;100579.22;5080518;27;46283;-68
2023/07/01 01:50:01;;;;;;;;;2.67;2.67;;;;;20.60;64.99;100583.59;5080457;27;45285;-68
2023/07/01 01:52:28;;;;;;;;;2.00;2.00;;;;;20.34;64.92;100549.38;5098364;27;45714;-68
2023/07/01 01:54:56;;;;;;;;;1.67;1.67;;;;;20.58;65.09;100582.97;5099227;27;45502;-68
2023/07/01 01:57:23;;;;;;;;;3.00;3.00;;;;;20.66;65.14;100587.34;5098518;27;45489;-69
2023/07/01 01:59:48;;;;;;;;;3.00;3.00;;;;;20.55;65.03;100572.59;5098796;27;45275;-69
2023/07/01 02:02:14;;;;;;;;;3.67;3.00;;;;;20.60;65.05;100577.34;5080592;27;45340;-68
2023/07/01 02:04:40;;;;;;;;;1.67;1.00;;;;;20.59;65.62;100575.69;5099252;27;45378;-69
2023/07/01 02:07:05;;;;;;;;;1.00;1.00;;;;;20.59;65.58;100581.94;5097334;27;45773;-70
2023/07/01 02:09:31;;;;;;;;;3.33;3.00;;;;;20.68;65.51;100577.13;5098845;27;45299;-69
2023/07/01 02:11:56;;;;;;;;;3.00;1.33;;;;;20.70;65.05;100566.94;5099215;27;45324;-70
2023/07/01 02:14:22;;;;;;;;;4.00;3.00;;;;;20.54;65.67;100548.50;5099215;27;45513;-69
2023/07/01 02:16:49;;;;;;;;;3.00;3.00;;;;;20.59;65.28;100559.50;5098608;27;46050;-68
2023/07/01 02:19:14;;;;;;;;;2.00;2.00;;;;;20.57;65.87;100561.59;5098308;27;45320;-69
2023/07/01 02:21:40;;;;;;;;;2.33;2.33;;;;;20.44;66.27;100548.16;5098499;27;45276;-68
2023/07/01 02:24:05;;;;;;;;;1.00;1.00;;;;;20.52;66.07;100558.69;5078624;27;45550;-68
2023/07/01 02:26:30;;;;;;;;;2.00;2.00;;;;;20.30;66.51;100515.75;5098556;27;46476;-68
2023/07/01 02:28:56;;;;;;;;;2.67;2.67;;;;;20.50;66.08;100548.13;5098388;27;45538;-68
2023/07/01 02:31:21;;;;;;;;;4.33;3.00;;;;;20.56;66.23;100544.56;5098637;27;45965;-68
2023/07/01 02:33:50;;;;;;;;;1.33;1.33;;;;;20.43;66.30;100533.00;5079513;27;45325;-68
2023/07/01 02:36:15;;;;;;;;;1.33;1.33;;;;;20.35;66.71;100526.75;5077963;28;46499;-69
2023/07/01 02:38:40;;;;;;;;;2.00;2.00;;;;;20.47;66.58;100542.31;5077406;28;45393;-68
2023/07/01 02:41:06;;;;;;;;;3.00;2.00;;;;;20.45;66.74;100528.19;5076772;28;45510;-69
2023/07/01 02:43:31;;;;;;;;;2.00;2.00;;;;;20.48;66.25;100535.88;5078363;28;45605;-68
2023/07/01 02:45:57;;;;;;;;;2.00;2.00;;;;;20.28;66.95;100517.84;5077599;28;45717;-69
2023/07/01 02:48:22;;;;;;;;;1.00;1.00;;;;;20.10;67.13;100481.78;5077039;28;59763;-68
2023/07/01 02:50:47;;;;;;;;;0.67;0.67;;;;;20.47;66.64;100528.81;5077823;28;45335;-70
2023/07/01 02:53:15;;;;;;;;;1.00;1.00;;;;;20.34;67.12;100513.44;5087327;27;45452;-69
2023/07/01 02:55:40;;;;;;;;;2.00;2.00;;;;;20.44;67.17;100530.06;5097171;27;45685;-68
2023/07/01 02:58:06;;;;;;;;;2.00;2.00;;;;;20.43;66.98;100522.19;5097771;27;45447;-69
2023/07/01 03:00:31;;;;;;;;;1.33;1.33;;;;;20.48;67.03;100523.19;5098133;27;45502;-70
2023/07/01 03:03:05;;;;;;;;;1.00;1.00;;;;;20.49;66.59;100522.16;5098289;27;45470;-69
2023/07/01 03:05:33;;;;;;;;;1.00;1.00;;;;;20.26;66.84;100476.72;5097371;27;45487;-68
2023/07/01 03:07:58;;;;;;;;;2.00;2.00;;;;;20.45;67.16;100517.41;5096620;27;45387;-68
2023/07/01 03:10:23;;;;;;;;;2.00;2.00;;;;;20.36;66.99;100514.88;5095657;27;45418;-69
2023/07/01 03:12:49;;;;;;;;;2.00;2.00;;;;;20.34;67.23;100503.47;5097733;27;45506;-69
2023/07/01 03:15:14;;;;;;;;;1.67;1.67;;;;;20.29;67.31;100489.81;5097906;27;45952;-70
2023/07/01 03:17:40;;;;;;;;;1.00;1.00;;;;;20.11;67.12;100464.53;5079498;27;46392;-70
2023/07/01 03:20:06;;;;;;;;;2.33;2.00;;;;;20.42;67.43;100504.31;5097910;27;45346;-70
2023/07/01 03:22:31;;;;;;;;;2.00;2.00;;;;;20.32;67.29;100485.84;5097067;27;45450;-68
2023/07/01 03:24:57;;;;;;;;;2.00;2.00;;;;;20.30;67.27;100485.22;5096668;27;46539;-69
2023/07/01 03:27:22;;;;;;;;;3.00;1.33;;;;;20.42;67.38;100496.19;5097554;27;45426;-68
2023/07/01 03:29:47;;;;;;;;;1.00;1.00;;;;;20.44;67.06;100500.38;5097823;27;45299;-69
2023/07/01 03:32:13;;;;;;;;;2.67;2.67;;;;;20.45;67.25;100499.31;5079624;27;45312;-70
2023/07/01 03:34:39;;;;;;;;;1.00;1.00;;;;;20.35;66.86;100475.44;5078615;27;48878;-69
2023/07/01 03:37:05;;;;;;;;;2.00;2.00;;;;;20.45;66.94;100487.69;5097596;27;45369;-71
2023/07/01 03:39:30;;;;;;;;;1.25;1.00;;;;;19.91;67.52;100411.47;5078986;27;45390;-69
2023/07/01 03:41:56;;;;;;;;;3.00;3.00;;;;;19.67;67.86;100377.94;5097109;27;56866;-70
2023/07/01 03:44:21;;;;;;;;;1.33;1.33;;;;;20.03;67.96;100433.22;5079005;27;48657;-69
2023/07/01 03:46:47;;;;;;;;;1.00;1.00;;;;;20.32;68.26;100486.66;5097457;27;45537;-69
2023/07/01 03:49:12;;;;;;;;;1.00;1.00;;;;;20.04;68.45;100430.31;5097813;27;45471;-69
2023/07/01 03:51:37;;;;;;;;;2.00;2.00;;;;;20.35;67.90;100485.41;5097380;27;45329;-69
2023/07/01 03:54:02;;;;;;;;;0.50;0.50;;;;;20.26;68.20;100474.03;5095200;27;69042;-69
2023/07/01 03:56:28;;;;;;;;;0.67;0.33;;;;;20.31;68.78;100481.50;5097047;27;45443;-69
2023/07/01 03:58:53;;;;;;;;;1.00;1.00;;;;;19.89;68.97;100412.72;5097221;27;45465;-69
2023/07/01 04:01:19;;;;;;;;;1.00;1.00;;;;;20.22;69.19;100466.56;5079299;27;45383;-70
2023/07/01 04:03:44;;;;;;;;;1.00;1.00;;;;;19.89;69.07;100418.13;5095188;27;48872;-68
2023/07/01 04:06:10;;;;;;;;;1.00;1.00;;;;;20.24;69.73;100465.31;5097205;27;45454;-68
2023/07/01 04:08:35;;;;;;;;;1.00;1.00;;;;;20.21;69.69;100471.13;5097145;27;45624;-68
2023/07/01 04:11:01;;;;;;;;;0.00;0.00;;;;;20.26;69.83;100473.22;5096574;27;57748;-70
2023/07/01 04:13:27;;;;;;;;;1.00;1.00;;;;;20.17;70.08;100450.19;5078687;27;46296;-68
2023/07/01 04:15:52;;;;;;;;;1.25;0.75;;;;;20.19;70.32;100462.41;5095429;27;45610;-69
2023/07/01 04:18:18;;;;;;;;;2.00;2.00;;;;;20.00;70.05;100420.97;5100237;27;45500;-68
2023/07/01 04:20:43;;;;;;;;;0.00;0.00;;;;;20.27;70.00;100455.97;5100680;27;45495;-68
2023/07/01 04:23:09;;;;;;;;;0.25;0.25;;;;;20.11;70.09;100443.78;5100298;27;46267;-68
2023/07/01 04:25:34;;;;;;;;;1.00;1.00;;;;;20.17;70.20;100452.88;5100183;27;45548;-69
2023/07/01 04:28:01;;;;;;;;;1.00;1.00;;;;;20.22;70.34;100467.41;5082231;27;45328;-69
2023/07/01 04:30:27;;;;;;;;;1.33;1.33;;;;;20.19;70.28;100446.22;5100754;27;45400;-69
2023/07/01 04:32:52;;;;;;;;;1.00;1.00;;;;;20.17;70.48;100442.91;5081902;27;47359;-69
2023/07/01 04:35:17;;;;;;;;;0.33;0.33;;;;;20.19;70.61;100451.63;5100380;27;45485;-68
2023/07/01 04:37:43;;;;;;;;;0.25;0.25;;;;;20.26;70.47;100459.72;5099673;27;45718;-68
2023/07/01 04:40:09;;;;;;;;;1.75;0.00;;;;;20.22;70.99;100453.06;5099548;27;45298;-71
2023/07/01 04:42:34;;;;;;;;;1.00;1.00;;;;;20.17;71.37;100453.72;5081536;27;48324;-68
2023/07/01 04:45:01;;;;;;;;;0.00;0.00;;;;;20.22;71.13;100455.75;5099861;27;45253;-67
2023/07/01 04:47:27;;;;;;;;;1.00;1.00;;;;;20.23;71.39;100460.97;5099105;27;45312;-69
2023/07/01 04:49:52;;;;;;;;;0.33;0.33;;;;;20.24;71.21;100443.72;5100234;27;45313;-69
2023/07/01 04:52:22;;;;;;;;;2.00;1.00;;;;;20.25;71.34;100448.09;5099174;27;46614;-68
2023/07/01 04:54:48;;;;;;;;;0.00;0.00;;;;;20.21;71.31;100444.13;5099777;27;45493;-69
2023/07/01 04:57:13;;;;;;;;;1.33;1.00;;;;;20.20;71.25;100453.28;5081590;27;45508;-68
2023/07/01 04:59:39;;;;;;;;;1.00;1.00;;;;;20.20;71.68;100439.78;5099893;27;45233;-68
2023/07/01 05:02:04;;;;;;;;;0.00;0.00;;;;;20.21;71.62;100437.91;5098962;27;45838;-68
2023/07/01 05:04:29;;;;;;;;;1.00;1.00;;;;;20.26;71.38;100435.41;5097786;27;45342;-69
2023/07/01 05:06:55;;;;;;;;;0.00;0.00;;;;;20.19;71.64;100430.03;5099426;27;45559;-69
2023/07/01 05:09:20;;;;;;;;;0.33;0.33;;;;;20.18;71.27;100438.34;5099253;27;45508;-70
2023/07/01 05:11:45;;;;;;;;;1.33;1.33;;;;;20.15;71.69;100434.19;5099650;27;46872;-70
2023/07/01 05:14:11;;;;;;;;;2.00;1.00;;;;;19.86;72.01;100386.16;5080617;27;63173;-70
2023/07/01 05:16:36;;;;;;;;;0.50;0.50;;;;;20.20;71.73;100428.97;5097259;27;45438;-68
2023/07/01 05:19:02;;;;;;;;;1.25;1.25;;;;;20.14;71.94;100413.66;5099972;27;45256;-68
2023/07/01 05:21:29;;;;;;;;;0.00;0.00;;;;;19.86;72.52;100372.69;5099560;27;45799;-69
2023/07/01 05:23:55;;;;;;;;;0.67;0.00;;;;;20.23;71.96;100436.69;5098621;27;45424;-70
2023/07/01 05:26:20;;;;;;;;;0.00;0.00;;;;;20.25;72.42;100431.88;5099571;27;45338;-69
2023/07/01 05:28:45;;;;;;;;;0.00;0.00;;;;;20.25;72.39;100422.97;5080880;27;45388;-68
2023/07/01 05:31:11;;;;;;;;;1.00;1.00;;;;;20.27;72.40;100426.28;5098501;27;69487;-68
2023/07/01 05:33:36;;;;;;;;;0.33;0.33;;;;;20.37;71.96;100437.41;5099130;27;45284;-69
2023/07/01 05:36:01;;;;;;;;;1.67;0.33;;;;;20.32;72.77;100437.25;5099343;27;45312;-69
2023/07/01 05:38:27;;;;;;;;;0.00;0.00;;;;;20.21;72.36;100421.72;5099284;27;45428;-68
2023/07/01 05:40:52;;;;;;;;;1.00;1.00;;;;;20.19;72.35;100408.44;5079215;27;52130;-69
2023/07/01 05:43:17;;;;;;;;;0.00;0.00;;;;;20.36;72.26;100441.16;5099059;27;45300;-70
2023/07/01 05:45:43;;;;;;;;;0.00;0.00;;;;;20.29;72.31;100414.22;5099215;27;45343;-69
2023/07/01 05:48:08;;;;;;;;;2.00;1.00;;;;;20.39;72.28;100429.94;5097755;27;45387;-79
2023/07/01 05:50:34;;;;;;;;;0.00;0.00;;;;;20.28;72.17;100417.94;5090104;27;45969;-68
2023/07/01 05:52:59;;;;;;;;;0.00;0.00;;;;;20.42;72.62;100432.22;5078401;28;45370;-69
2023/07/01 05:55:24;;;;;;;;;0.00;0.00;;;;;20.27;72.46;100400.09;5078500;27;45417;-69
2023/07/01 05:57:50;;;;;;;;;0.00;0.00;;;;;20.47;72.24;100426.19;5078536;28;45632;-69
2023/07/01 06:00:16;;;;;;;;;0.00;0.00;;;;;20.55;72.31;100445.66;5094676;27;45510;-68
2023/07/01 06:02:41;;;;;;;;;1.00;1.00;;;;;20.55;72.63;100434.03;5097287;27;45489;-70
2023/07/01 06:05:08;;;;;;;;;0.00;0.00;;;;;20.29;72.81;100389.91;5080547;27;45243;-69
2023/07/01 06:07:34;;;;;;;;;0.75;0.00;;;;;20.49;71.90;100416.00;5099026;27;45260;-69
2023/07/01 06:09:59;;;;;;;;;0.00;0.00;;;;;20.64;72.34;100438.97;5096469;27;45545;-69
2023/07/01 06:12:25;;;;;;;;;0.25;0.25;;;;;20.65;72.27;100434.41;5097788;27;45440;-68
2023/07/01 06:14:51;;;;;;;;;1.00;1.00;;;;;20.67;72.24;100434.19;5080445;27;45500;-69
2023/07/01 06:17:16;;;;;;;;;1.50;0.25;;;;;20.53;72.25;100401.84;5098625;27;45549;-69
2023/07/01 06:19:41;;;;;;;;;1.00;1.00;;;;;20.70;72.11;100418.34;5097825;27;62024;-69
2023/07/01 06:22:06;;;;;;;;;1.25;1.25;;;;;20.77;71.97;100421.84;5098354;27;45354;-69
2023/07/01 06:24:32;;;;;;;;;0.00;0.00;;;;;20.92;71.66;100433.16;5097959;27;45939;-69
2023/07/01 06:26:57;;;;;;;;;0.75;0.75;;;;;20.96;71.57;100431.66;5098786;27;45242;-69
2023/07/01 06:29:22;;;;;;;;;0.25;0.25;;;;;21.05;71.63;100434.94;5098300;27;45544;-70
2023/07/01 06:31:48;;;;;;;;;0.00;0.00;;;;;21.08;71.04;100417.47;5097623;27;62634;-70
2023/07/01 06:34:16;;;;;;;;;0.00;0.00;;;;;21.03;71.08;100407.31;5098434;27;45379;-70
2023/07/01 06:36:45;;;;;;;;;0.50;0.50;;;;;21.07;71.47;100415.81;5097110;27;45604;-69
2023/07/01 06:39:12;;;;;;;;;0.00;0.00;;;;;21.08;71.25;100415.59;5096917;27;45850;-69
2023/07/01 06:41:38;;;;;;;;;0.00;0.00;;;;;21.09;71.22;100414.53;5097363;27;45915;-70
2023/07/01 06:44:03;;;;;;;;;1.00;1.00;;;;;21.12;71.79;100433.00;5096873;27;45565;-69
2023/07/01 06:46:29;;;;;;;;;0.00;0.00;;;;;21.09;71.43;100416.41;5098523;27;45307;-70
2023/07/01 06:48:54;;;;;;;;;0.00;0.00;;;;;21.14;71.12;100417.41;5097213;27;45440;-69
2023/07/01 06:51:20;;;;;;;;;0.00;0.00;;;;;21.15;71.54;100421.75;5097789;27;45234;-69
2023/07/01 06:53:45;;;;;;;;;0.00;0.00;;;;;21.19;71.40;100409.44;5096375;27;45342;-70
2023/07/01 06:56:11;;;;;;;;;0.25;0.25;;;;;21.38;71.63;100413.03;5096901;27;45446;-69
2023/07/01 06:58:36;;;;;;;;;1.00;0.00;;;;;21.49;70.53;100406.09;5097816;27;46879;-68
2023/07/01 07:01:03;;;;;;;;;0.00;0.00;;;;;21.55;70.13;100392.47;5096601;27;45358;-68
2023/07/01 07:03:29;;;;;;;;;3.00;2.00;;;;;21.62;69.67;100386.16;5097979;27;45304;-69
2023/07/01 07:05:55;;;;;;;;;1.33;0.00;;;;;21.66;69.19;100390.09;5098017;27;45385;-69
2023/07/01 07:08:21;;;;;;;;;0.00;0.00;;;;;21.78;69.34;100410.75;5097111;27;45727;-69
2023/07/01 07:10:47;;;;;;;;;0.25;0.25;;;;;21.54;69.09;100369.19;5097848;27;45324;-69
2023/07/01 07:13:12;;;;;;;;;0.00;0.00;;;;;21.80;69.26;100410.53;5097759;27;45317;-69
2023/07/01 07:15:38;;;;;;;;;0.33;0.33;;;;;21.90;69.01;100416.25;5097959;27;45378;-70
2023/07/01 07:18:07;;;;;;;;;1.00;1.00;;;;;21.93;68.63;100415.78;5097597;27;46692;-68
2023/07/01 07:20:33;;;;;;;;;0.00;0.00;;;;;21.94;68.57;100406.63;5097532;27;45549;-67
2023/07/01 07:22:58;;;;;;;;;0.00;0.00;;;;;21.79;68.38;100384.50;5078965;27;45483;-69
2023/07/01 07:25:24;;;;;;;;;0.25;0.25;;;;;21.99;68.25;100405.94;5096245;27;45439;-68
2023/07/01 07:27:49;;;;;;;;;0.00;0.00;;;;;21.86;67.84;100382.59;5093836;27;48541;-68
2023/07/01 07:30:14;;;;;;;;;1.00;0.00;;;;;22.10;67.69;100425.00;5092939;27;46384;-69
2023/07/01 07:32:41;;;;;;;;;0.00;0.00;;;;;22.04;67.74;100409.66;5079404;27;45541;-68
2023/07/01 07:35:07;;;;;;;;;5.00;3.67;;;;;22.10;67.91;100414.16;5094880;27;45668;-68
2023/07/01 07:37:32;;;;;;;;;0.00;0.00;;;;;22.13;67.26;100424.53;5091244;27;46369;-67
2023/07/01 07:39:59;;;;;;;;;0.50;0.50;;;;;22.12;66.96;100417.47;5094942;27;45513;-69
2023/07/01 07:42:25;;;;;;;;;0.00;0.00;;;;;22.15;67.50;100411.59;5094922;27;45398;-70
2023/07/01 07:44:50;;;;;;;;;1.00;1.00;;;;;22.22;67.53;100407.97;5097326;27;45506;-69
2023/07/01 07:47:15;;;;;;;;;0.00;0.00;;;;;22.26;66.90;100409.19;5096553;27;56726;-69
2023/07/01 07:49:41;;;;;;;;;1.75;1.00;;;;;22.34;66.95;100420.50;5094794;27;45247;-69
2023/07/01 07:52:07;;;;;;;;;2.00;0.67;;;;;22.49;68.00;100411.97;5088940;27;45406;-70
2023/07/01 07:54:32;;;;;;;;;1.25;1.25;;;;;22.85;66.25;100413.78;5100671;27;45926;-69
2023/07/01 07:56:59;;;;;;;;;0.00;0.00;;;;;23.57;64.84;100402.75;5081753;27;46346;-70
2023/07/01 07:59:27;;;;;;;;;1.00;1.00;;;;;24.42;60.58;100411.03;5098366;27;45674;-72
2023/07/01 08:01:54;;;;;;;;;0.00;0.00;;;;;24.90;59.10;100393.41;5100480;27;45322;-68
2023/07/01 08:04:20;;;;;;;;;0.00;0.00;;;;;25.33;58.02;100403.63;5099674;27;45470;-70
2023/07/01 08:06:45;;;;;;;;;0.25;0.25;;;;;25.65;57.38;100395.66;5099900;27;46955;-68
2023/07/01 08:09:10;;;;;;;;;0.00;0.00;;;;;25.82;56.50;100401.06;5098408;27;45421;-70
2023/07/01 08:11:35;;;;;;;;;1.00;1.00;;;;;25.84;56.63;100392.69;5100596;27;45543;-70
2023/07/01 08:14:01;;;;;;;;;3.00;1.00;;;;;25.72;55.21;100384.63;5081253;27;46079;-74
2023/07/01 08:16:26;;;;;;;;;2.50;0.00;;;;;25.57;54.91;100381.66;5099915;27;45663;-73
2023/07/01 08:18:52;;;;;;;;;0.00;0.00;;;;;25.38;55.42;100389.28;5099014;27;45548;-73
2023/07/01 08:21:17;;;;;;;;;0.00;0.00;;;;;25.26;55.75;100383.13;5099741;27;45293;-74
2023/07/01 08:23:42;;;;;;;;;0.00;0.00;;;;;25.11;55.94;100381.81;5100488;27;45311;-74
2023/07/01 08:26:08;;;;;;;;;0.00;0.00;;;;;25.01;56.54;100378.09;5081737;27;46215;-72
2023/07/01 08:28:33;;;;;;;;;1.00;1.00;;;;;25.01;56.65;100392.53;5097696;27;50844;-72
2023/07/01 08:30:59;;;;;;;;;2.75;1.50;;;;;25.15;56.15;100402.00;5097049;27;45533;-71
2023/07/01 08:33:25;;;;;;;;;1.00;1.00;;;;;25.31;55.92;100386.75;5097388;27;45514;-70
2023/07/01 08:35:51;;;;;;;;;0.00;0.00;;;;;25.46;55.24;100395.13;5099784;27;45604;-72
2023/07/01 08:38:16;;;;;;;;;0.50;0.50;;;;;25.91;55.19;100387.84;5081314;27;45441;-70
2023/07/01 08:40:42;;;;;;;;;0.00;0.00;;;;;26.48;53.79;100381.97;5097995;27;45239;-69
2023/07/01 08:43:10;;;;;;;;;0.00;0.00;;;;;27.35;52.15;100378.06;5096928;27;45402;-69
2023/07/01 08:45:38;;;;;;;;;0.00;0.00;;;;;27.68;50.36;100355.06;5098805;27;46373;-71
2023/07/01 08:48:05;;;;;;;;;1.00;1.00;;;;;28.10;49.50;100394.03;5098451;27;45438;-71
2023/07/01 08:50:52;;;;;;;;;1.33;1.33;;;;;27.98;49.17;100401.63;5097464;27;45327;-69
2023/07/01 08:53:19;;;;;;;;;0.00;0.00;;;;;27.45;50.25;100409.00;5080595;27;45690;-69
2023/07/01 08:55:45;;;;;;;;;1.00;1.00;;;;;27.07;52.14;100406.53;5098423;27;46539;-71
2023/07/01 08:58:12;;;;;;;;;0.00;0.00;;;;;26.82;53.63;100412.53;5089347;27;45561;-68
2023/07/01 09:00:39;;;;;;;;;0.00;0.00;;;;;26.61;53.09;100409.63;5096940;27;46206;-70
2023/07/01 09:03:06;;;;;;;;;0.25;0.25;;;;;27.08;53.55;100405.44;5097446;27;45240;-70
2023/07/01 09:05:31;;;;;;;;;1.00;1.00;;;;;28.23;51.48;100408.25;5098095;27;46611;-67
2023/07/01 09:07:57;;;;;;;;;1.00;0.75;;;;;29.16;48.78;100365.19;5098292;27;45602;-68
2023/07/01 09:10:22;;;;;;;;;0.00;0.00;;;;;30.17;45.26;100398.88;5099112;27;51101;-68
2023/07/01 09:12:48;;;;;;;;;2.33;1.00;;;;;31.05;44.31;100401.59;5098601;27;45363;-69
2023/07/01 09:15:13;;;;;;;;;0.00;0.00;;;;;30.50;42.49;100255.47;5075781;27;46267;-70
2023/07/01 09:17:41;;;;;;;;;0.00;0.00;;;;;31.08;41.77;100387.28;5099121;27;45436;-70
2023/07/01 09:20:11;;;;;;;;;2.50;2.50;;;;;30.90;41.30;100401.72;5099346;27;45442;-69
2023/07/01 09:22:38;;;;;;;;;0.25;0.25;;;;;30.57;42.59;100400.53;5081118;27;45653;-69
2023/07/01 09:25:04;;;;;;;;;0.00;0.00;;;;;30.21;43.82;100397.19;5098734;27;46586;-69
2023/07/01 09:27:46;;;;;;;;;0.00;0.00;;;;;29.79;43.27;100392.97;5097967;27;45529;-69
2023/07/01 09:30:20;;;;;;;;;0.25;0.00;;;;;29.65;45.00;100398.25;5079652;27;45444;-69
2023/07/01 09:32:46;;;;;;;;;1.75;1.25;;;;;30.10;44.92;100377.25;5098307;27;45394;-68
2023/07/01 09:35:12;;;;;;;;;0.00;0.00;;;;;31.25;41.48;100397.03;5098342;27;45711;-68
2023/07/01 09:37:38;;;;;;;;;0.00;0.00;;;;;31.34;39.82;100382.38;5078245;27;46529;-68
2023/07/01 09:40:29;;;;;;;;;0.00;0.00;;;;;31.16;40.22;100394.06;5098625;27;45387;-68
2023/07/01 09:42:55;;;;;;;;;3.33;1.00;;;;;30.84;39.99;100392.69;5099080;27;45437;-68
2023/07/01 09:45:21;;;;;;;;;1.00;1.00;;;;;30.61;40.90;100387.06;5098113;27;56830;-68
2023/07/01 09:47:53;;;;;;;;;6.67;6.67;;;;;30.66;41.18;100400.81;5098861;27;45260;-68
2023/07/01 09:50:24;;;;;;;;;3.00;2.00;;;;;30.68;40.77;100407.66;5091661;27;45278;-68
2023/07/01 09:52:51;;;;;;;;;1.00;0.00;;;;;30.76;40.27;100408.94;5078220;27;45549;-68
2023/07/01 09:55:16;;;;;;;;;2.00;0.50;;;;;30.62;40.39;100407.94;5078059;28;46993;-68
2023/07/01 09:57:42;;;;;;;;;0.00;0.00;;;;;30.25;39.96;100396.38;5078019;28;45257;-68
2023/07/01 10:00:15;;;;;;;;;0.00;0.00;;;;;30.26;39.42;100383.47;5078181;28;45737;-67
2023/07/01 10:02:47;;;;;;;;;0.00;0.00;;;;;30.61;39.06;100398.91;5094731;27;45491;-68
2023/07/01 10:05:13;;;;;;;;;1.50;0.50;;;;;30.79;38.27;100397.41;5098122;27;46573;-69
2023/07/01 10:07:43;;;;;;;;;0.00;0.00;;;;;30.69;38.28;100356.31;5080043;27;46641;-68
2023/07/01 10:10:16;;;;;;;;;0.00;0.00;;;;;30.86;37.85;100392.41;5092745;27;45506;-70
2023/07/01 10:12:44;;;;;;;;;0.50;0.00;;;;;30.78;38.07;100382.03;5098150;27;45602;-69
2023/07/01 10:15:12;;;;;;;;;0.00;0.00;;;;;30.73;37.46;100390.31;5097309;27;45718;-69
2023/07/01 10:17:47;;;;;;;;;1.00;1.00;;;;;30.63;37.97;100393.13;5098308;27;45420;-69
2023/07/01 10:20:26;;;;;;;;;0.00;0.00;;;;;30.54;37.50;100395.63;5098510;27;45299;-69
2023/07/01 10:22:55;;;;;;;;;1.50;1.00;;;;;30.46;38.52;100399.00;5098456;27;45308;-69
2023/07/01 10:25:35;;;;;;;;;2.00;1.00;;;;;30.42;38.70;100409.69;5098174;27;45720;-69
2023/07/01 10:28:00;;;;;;;;;0.00;0.00;;;;;30.26;37.66;100399.94;5098158;27;45341;-69
2023/07/01 10:30:46;;;;;;;;;1.67;1.00;;;;;30.11;38.05;100400.00;5097991;27;45653;-69
2023/07/01 10:33:47;;;;;;;;;4.67;4.67;;;;;30.14;37.67;100399.44;5098185;27;45475;-69
2023/07/01 10:36:18;;;;;;;;;1.00;1.00;;;;;29.98;36.92;100402.22;5072652;27;46887;-69
2023/07/01 10:38:44;;;;;;;;;2.00;2.00;;;;;29.88;37.78;100380.34;5097755;27;45545;-69
2023/07/01 10:41:09;;;;;;;;;2.33;2.00;;;;;29.95;37.28;100377.28;5098007;27;45392;-68
2023/07/01 10:43:37;;;;;;;;;3.00;3.00;;;;;29.86;37.03;100400.91;5098037;27;45475;-68
2023/07/01 10:46:24;;;;;;;;;1.00;1.00;;;;;29.69;36.78;100393.03;5097877;27;45724;-69
2023/07/01 10:49:02;;;;;;;;;3.33;2.00;;;;;29.52;37.62;100385.13;5079307;27;45454;-68
2023/07/01 10:51:28;;;;;;;;;2.00;2.00;;;;;29.51;37.38;100390.88;5097852;27;45561;-68
2023/07/01 10:54:05;;;;;;;;;2.33;2.33;;;;;29.47;36.98;100387.06;5098045;27;45300;-69
2023/07/01 10:56:37;;;;;;;;;1.00;1.00;;;;;29.47;37.82;100390.63;5097486;27;47992;-69
2023/07/01 10:59:22;;;;;;;;;2.33;2.33;;;;;29.39;37.93;100394.69;5096536;27;45209;-71
2023/07/01 11:01:50;;;;;;;;;5.00;5.00;;;;;29.18;37.87;100368.47;5086462;27;45457;-69
2023/07/01 11:04:17;;;;;;;;;4.00;4.00;;;;;29.07;38.19;100372.31;5092921;27;45617;-70
2023/07/01 11:06:53;;;;;;;;;2.00;2.00;;;;;28.91;37.97;100387.09;5096859;27;46705;-69
2023/07/01 11:09:35;;;;;;;;;2.00;2.00;;;;;28.78;38.05;100380.22;5097287;27;45453;-69
2023/07/01 11:12:03;;;;;;;;;3.00;2.00;;;;;28.56;38.47;100375.00;5097585;27;45370;-68
2023/07/01 11:14:34;;;;;;;;;3.00;3.00;;;;;28.65;38.36;100367.09;5097642;27;45433;-69
2023/07/01 11:17:11;;;;;;;;;4.33;3.67;;;;;28.73;37.57;100381.06;5096597;27;46476;-69
2023/07/01 11:19:37;;;;;;;;;2.00;2.00;;;;;28.78;38.23;100386.50;5094693;27;45593;-69
2023/07/01 11:22:03;;;;;;;;;3.67;3.00;;;;;28.79;37.36;100390.88;5096292;27;45379;-68
2023/07/01 11:24:32;;;;;;;;;3.00;3.00;;;;;28.52;37.51;100330.16;5078752;27;45351;-71